Time;durP1;ratioP1;P1;durP2;ratioP2;P2;SDS_P1;SDS_P2;PMS_P1;PMS_P2;Temp;Humidity;BMP_temperature;BMP_pressure;BME280_temperature;BME280_humidity;BME280_pressure;Samples;Min_cycle;Max_cycle;Signal;HPM_P1;HPM_P2
2022/09/12 00:01:13;;;;;;;7.35;4.53;;;;;;;15.05;74.01;98464.70;1773520;80;20953;-41
2022/09/12 00:03:40;;;;;;;6.47;4.47;;;;;;;15.11;74.07;98466.36;1773737;80;21079;-41
2022/09/12 00:06:11;;;;;;;5.03;4.50;;;;;;;15.14;74.06;98462.23;1773776;80;20961;-41
2022/09/12 00:08:40;;;;;;;6.42;4.50;;;;;;;15.12;73.90;98452.31;1773415;80;20989;-41
2022/09/12 00:11:09;;;;;;;3.58;3.02;;;;;;;15.01;74.12;98463.95;1773657;80;20962;-41
2022/09/12 00:13:38;;;;;;;6.00;3.08;;;;;;;14.67;74.36;98420.34;1773884;80;21008;-41
2022/09/12 00:16:06;;;;;;;7.35;2.80;;;;;;;14.96;74.36;98456.22;1773938;80;21515;-41
2022/09/12 00:18:33;;;;;;;6.45;3.10;;;;;;;14.98;74.51;98465.38;1774008;80;21023;-41
2022/09/12 00:21:03;;;;;;;4.53;3.05;;;;;;;14.95;74.68;98456.06;1773984;80;21005;-41
2022/09/12 00:23:32;;;;;;;6.17;3.37;;;;;;;14.91;74.80;98459.41;1773665;80;23121;-41
2022/09/12 00:25:58;;;;;;;5.80;3.40;;;;;;;14.85;75.06;98456.97;1773840;80;20969;-41
2022/09/12 00:28:25;;;;;;;5.08;3.20;;;;;;;14.84;75.13;98452.69;1773522;80;21072;-41
2022/09/12 00:30:52;;;;;;;4.90;3.15;;;;;;;14.95;75.10;98453.34;1773695;80;21021;-41
2022/09/12 00:33:19;;;;;;;5.05;3.30;;;;;;;15.06;74.97;98447.13;1773771;80;21041;-41
2022/09/12 00:35:49;;;;;;;5.95;3.02;;;;;;;15.06;74.75;98447.13;1773479;80;23103;-41
2022/09/12 00:38:15;;;;;;;;;;;;;;;15.08;74.69;98445.36;1776350;80;20997;-41
2022/09/12 00:40:43;;;;;;;4.55;2.80;;;;;;;15.09;74.53;98445.55;1773609;80;20176;-41
2022/09/12 00:43:35;;;;;;;4.37;3.30;;;;;;;15.08;74.44;98442.62;1773604;80;21077;-41
2022/09/12 00:46:08;;;;;;;5.40;3.17;;;;;;;15.09;74.38;98444.17;1772895;80;21084;-41
2022/09/12 00:48:40;;;;;;;4.78;3.37;;;;;;;15.07;74.55;98446.53;1772814;80;21253;-41
2022/09/12 00:51:07;;;;;;;9.88;3.52;;;;;;;15.07;74.56;98441.85;1773452;80;20965;-41
2022/09/12 00:53:35;;;;;;;7.20;2.85;;;;;;;15.06;74.37;98443.62;1773602;80;21017;-41
2022/09/12 00:56:02;;;;;;;3.75;3.12;;;;;;;15.07;74.32;98447.31;1751462;80;22140;-41
2022/09/12 00:58:33;;;;;;;4.22;3.12;;;;;;;15.09;74.40;98443.59;1773654;80;21429;-41
2022/09/12 01:01:00;;;;;;;3.72;3.30;;;;;;;15.09;74.53;98441.45;1773690;80;21099;-41
2022/09/12 01:03:26;;;;;;;5.05;3.00;;;;;;;15.04;74.40;98437.22;1773594;80;20950;-41
2022/09/12 01:06:16;;;;;;;4.22;3.05;;;;;;;15.05;74.40;98436.05;1773772;80;21073;-41
2022/09/12 01:08:43;;;;;;;6.58;3.77;;;;;;;15.09;74.30;98433.26;1770623;80;21064;-41
2022/09/12 01:11:10;;;;;;;5.45;3.60;;;;;;;15.09;74.35;98438.13;1779465;80;21072;-41
2022/09/12 01:13:37;;;;;;;7.83;3.85;;;;;;;15.08;74.50;98443.41;1779567;80;21253;-41
2022/09/12 01:16:06;;;;;;;5.75;3.15;;;;;;;15.05;74.63;98442.09;1779659;80;21008;-41
2022/09/12 01:19:17;;;;;;;5.30;2.92;;;;;;;15.03;74.50;98441.13;1779676;80;21079;-41
2022/09/12 01:22:12;;;;;;;4.53;3.45;;;;;;;15.04;74.51;98437.81;1779115;80;21001;-41
2022/09/12 01:25:21;;;;;;;6.92;3.72;;;;;;;15.03;74.61;98439.77;1779424;80;21009;-41
2022/09/12 01:28:18;;;;;;;8.88;3.80;;;;;;;15.03;74.72;98435.67;1779543;80;21229;-41
2022/09/12 01:31:06;;;;;;;4.30;3.12;;;;;;;14.97;74.62;98434.58;1779259;80;21013;-41
2022/09/12 01:34:08;;;;;;;6.85;3.00;;;;;;;14.89;74.90;98439.19;1779171;80;21019;-41
2022/09/12 01:37:06;;;;;;;4.60;3.25;;;;;;;14.92;74.94;98436.98;1779410;80;21544;-41
2022/09/12 01:39:54;;;;;;;5.62;3.42;;;;;;;14.82;75.07;98437.90;1779482;80;21786;-41
2022/09/12 01:42:35;;;;;;;6.37;2.98;;;;;;;14.67;75.54;98438.66;1768315;80;21332;-41
2022/09/12 01:45:14;;;;;;;6.05;2.52;;;;;;;14.61;75.63;98437.01;1779488;80;20953;-41
2022/09/12 01:47:50;;;;;;;3.90;2.75;;;;;;;14.56;75.87;98440.19;1779184;80;21048;-41
2022/09/12 01:50:21;;;;;;;4.10;2.45;;;;;;;14.48;76.04;98442.02;1779357;80;20961;-41
2022/09/12 01:53:24;;;;;;;4.20;2.40;;;;;;;14.38;76.25;98434.75;1751124;80;21084;-41
2022/09/12 01:56:12;;;;;;;4.35;1.92;;;;;;;14.28;76.45;98440.48;1779561;80;21577;-41
2022/09/12 01:58:50;;;;;;;3.98;1.90;;;;;;;14.22;76.69;98436.06;1779376;80;21001;-41
2022/09/12 02:01:25;;;;;;;2.12;1.92;;;;;;;14.17;76.79;98431.63;1779357;80;20964;-41
2022/09/12 02:04:11;;;;;;;3.98;1.70;;;;;;;14.07;77.09;98436.60;1777855;80;21599;-41
2022/09/12 02:07:01;;;;;;;2.77;1.27;;;;;;;13.99;77.46;98444.05;1779662;80;21582;-41
2022/09/12 02:09:37;;;;;;;3.60;1.50;;;;;;;13.94;77.61;98443.91;1762603;80;23140;-41
2022/09/12 02:12:05;;;;;;;1.30;1.20;;;;;;;13.95;77.12;98437.87;1773592;80;21073;-41
2022/09/12 02:14:41;;;;;;;1.98;1.00;;;;;;;13.93;76.74;98437.52;1773846;80;20969;-41
2022/09/12 02:17:15;;;;;;;1.47;0.70;;;;;;;13.87;76.22;98441.84;1773950;80;20965;-41
2022/09/12 02:19:50;;;;;;;1.47;0.50;;;;;;;13.77;74.85;98439.98;1772536;80;21037;-41
2022/09/12 02:22:20;;;;;;;0.85;0.30;;;;;;;13.64;74.48;98445.16;1773461;80;21158;-40
2022/09/12 02:24:50;;;;;;;1.62;0.60;;;;;;;13.52;74.14;98442.14;1773824;80;28848;-41
2022/09/12 02:27:45;;;;;;;0.78;0.42;;;;;;;13.42;73.85;98438.32;1773589;80;21812;-40
2022/09/12 02:30:16;;;;;;;1.05;0.70;;;;;;;13.26;74.09;98440.20;1773581;80;20969;-40
2022/09/12 02:33:03;;;;;;;0.30;0.30;;;;;;;13.12;74.35;98447.68;1773583;80;21041;-40
2022/09/12 02:35:42;;;;;;;2.42;0.35;;;;;;;13.04;74.02;98451.77;1773599;80;21613;-40
2022/09/12 02:38:16;;;;;;;0.20;0.20;;;;;;;12.96;73.71;98446.18;1773690;80;20981;-41
2022/09/12 02:40:42;;;;;;;1.52;0.40;;;;;;;12.89;73.82;98438.04;1772915;80;21076;-41
2022/09/12 02:43:09;;;;;;;1.60;0.30;;;;;;;12.82;74.04;98444.12;1751699;80;20953;-41
2022/09/12 02:45:36;;;;;;;0.30;0.30;;;;;;;12.76;73.92;98442.97;1773583;80;21084;-41
2022/09/12 02:48:23;;;;;;;0.82;0.42;;;;;;;12.73;73.80;98439.70;1773461;80;21231;-41
2022/09/12 02:50:50;;;;;;;0.95;0.47;;;;;;;12.74;73.87;98448.02;1773482;80;21009;-40
2022/09/12 02:53:17;;;;;;;0.40;0.30;;;;;;;12.72;73.92;98445.72;1773340;80;21587;-41
2022/09/12 02:55:44;;;;;;;0.40;0.30;;;;;;;12.68;74.08;98450.41;1773583;80;21033;-41
2022/09/12 02:58:17;;;;;;;0.93;0.50;;;;;;;12.62;74.02;98454.69;1751651;80;21085;-40
2022/09/12 03:01:12;;;;;;;0.23;0.23;;;;;;;12.54;74.05;98451.20;1773970;80;21774;-40
2022/09/12 03:04:07;;;;;;;0.78;0.40;;;;;;;12.49;74.12;98450.86;1773535;80;20973;-40
2022/09/12 03:06:55;;;;;;;1.30;0.40;;;;;;;12.50;74.19;98450.45;1773573;80;21015;-41
2022/09/12 03:09:42;;;;;;;3.62;0.55;;;;;;;12.53;74.38;98452.98;1773013;80;21021;-41
2022/09/12 03:12:48;;;;;;;0.70;0.40;;;;;;;12.54;74.29;98453.15;1773721;80;21096;-41
2022/09/12 03:15:35;;;;;;;0.57;0.40;;;;;;;12.56;74.15;98450.82;1773681;80;21141;-41
2022/09/12 03:18:33;;;;;;;2.95;0.23;;;;;;;12.61;73.79;98455.27;1772828;80;21009;-41
2022/09/12 03:21:27;;;;;;;1.47;0.30;;;;;;;12.60;73.45;98451.00;1773750;80;21025;-40
2022/09/12 03:24:22;;;;;;;0.35;0.30;;;;;;;12.53;73.26;98449.68;1773587;80;21024;-40
2022/09/12 03:27:03;;;;;;;0.80;0.40;;;;;;;12.47;73.27;98446.39;1773509;80;21101;-41
2022/09/12 03:29:30;;;;;;;1.35;0.30;;;;;;;12.44;73.31;98443.86;1772543;80;21140;-40
2022/09/12 03:31:57;;;;;;;0.57;0.30;;;;;;;12.45;73.17;98446.00;1773656;80;21013;-41
2022/09/12 03:34:26;;;;;;;1.02;0.33;;;;;;;12.47;73.02;98446.39;1773535;80;20977;-41
2022/09/12 03:36:57;;;;;;;1.20;0.40;;;;;;;12.49;73.14;98450.86;1773914;80;21591;-41
2022/09/12 03:39:23;;;;;;;0.50;0.50;;;;;;;12.45;73.22;98453.57;1773626;80;20997;-41
2022/09/12 03:41:53;;;;;;;1.20;0.50;;;;;;;12.46;73.21;98456.48;1773704;80;21238;-41
2022/09/12 03:44:19;;;;;;;0.40;0.40;;;;;;;12.45;73.34;98452.21;1773799;80;21519;-41
2022/09/12 03:46:46;;;;;;;0.72;0.40;;;;;;;12.46;73.13;98458.43;1773769;80;21532;-41
2022/09/12 03:49:13;;;;;;;1.30;0.30;;;;;;;12.49;73.00;98456.30;1773661;80;21088;-41
2022/09/12 03:51:41;;;;;;;3.85;0.50;;;;;;;12.51;73.04;98457.44;1773763;80;21057;-41
2022/09/12 03:54:08;;;;;;;0.80;0.40;;;;;;;12.49;73.22;98461.13;1773714;80;21432;-41
2022/09/12 03:56:35;;;;;;;0.98;0.53;;;;;;;12.50;73.32;98461.91;1773450;80;21006;-41
2022/09/12 03:59:05;;;;;;;1.45;0.80;;;;;;;12.49;73.38;98459.77;1773679;80;21017;-40
2022/09/12 04:01:32;;;;;;;1.32;0.75;;;;;;;12.51;73.37;98464.23;1773552;80;21562;-40
2022/09/12 04:03:59;;;;;;;0.55;0.53;;;;;;;12.55;73.33;98468.30;1773716;80;20986;-41
2022/09/12 04:06:26;;;;;;;2.15;0.80;;;;;;;12.60;73.48;98466.53;1773698;80;21234;-41
2022/09/12 04:08:53;;;;;;;3.00;0.62;;;;;;;12.63;73.38;98471.95;1761555;80;21031;-40
2022/09/12 04:11:22;;;;;;;0.90;0.68;;;;;;;12.67;73.41;98466.52;1748421;82;21030;-41
2022/09/12 04:13:49;;;;;;;5.05;0.50;;;;;;;12.69;73.48;98467.47;1748469;82;21038;-41
2022/09/12 04:16:16;;;;;;;1.37;0.80;;;;;;;12.73;73.38;98468.25;1748720;82;21098;-41
2022/09/12 04:18:43;;;;;;;1.75;0.50;;;;;;;12.81;73.10;98469.77;1748923;82;21153;-41
2022/09/12 04:21:13;;;;;;;2.15;0.50;;;;;;;12.85;72.88;98471.88;1748663;82;20994;-40
2022/09/12 04:23:40;;;;;;;3.37;0.82;;;;;;;12.83;72.90;98472.27;1748692;82;20931;-40
2022/09/12 04:26:07;;;;;;;0.57;0.55;;;;;;;12.81;72.67;98471.13;1748691;82;21407;-41
2022/09/12 04:28:37;;;;;;;2.05;0.78;;;;;;;12.78;72.81;98474.64;1748728;82;20987;-41
2022/09/12 04:31:10;;;;;;;1.32;0.85;;;;;;;12.78;72.81;98480.83;1749112;82;21164;-40
2022/09/12 04:33:37;;;;;;;1.90;0.60;;;;;;;12.82;72.93;98475.40;1725369;82;21007;-41
2022/09/12 04:36:07;;;;;;;1.02;0.50;;;;;;;12.81;72.95;98479.28;1748607;82;20955;-41
2022/09/12 04:38:34;;;;;;;1.55;0.55;;;;;;;12.78;73.38;98479.47;1748952;82;21693;-40
2022/09/12 04:41:12;;;;;;;0.70;0.60;;;;;;;12.81;73.53;98476.56;1748733;82;21498;-41
2022/09/12 04:43:40;;;;;;;1.45;0.80;;;;;;;12.84;73.54;98473.81;1748616;82;21242;-40
2022/09/12 04:46:08;;;;;;;1.25;0.57;;;;;;;12.88;73.31;98473.20;1748554;82;21459;-41
2022/09/12 04:48:36;;;;;;;1.65;0.80;;;;;;;12.94;73.07;98477.08;1748719;82;21026;-41
2022/09/12 04:51:13;;;;;;;3.70;0.75;;;;;;;12.94;73.15;98479.02;1748366;82;21015;-41
2022/09/12 04:53:40;;;;;;;3.15;0.70;;;;;;;12.90;73.37;98484.48;1747887;82;21050;-41
2022/09/12 04:56:09;;;;;;;2.50;1.05;;;;;;;12.89;73.70;98483.51;1748366;82;21268;-41
2022/09/12 04:58:37;;;;;;;0.62;0.50;;;;;;;12.91;73.77;98483.90;1748746;82;20931;-40
2022/09/12 05:01:12;;;;;;;1.15;0.60;;;;;;;12.93;73.82;98489.70;1748612;82;21078;-41
2022/09/12 05:03:39;;;;;;;3.05;0.82;;;;;;;13.00;73.91;98485.60;1748991;82;21587;-40
2022/09/12 05:06:08;;;;;;;0.98;0.82;;;;;;;13.08;74.00;98489.25;1748471;82;21573;-41
2022/09/12 05:08:35;;;;;;;6.67;0.70;;;;;;;13.05;73.88;98485.97;1749084;82;21759;-41
2022/09/12 05:11:04;;;;;;;3.22;0.62;;;;;;;13.05;74.05;98487.33;1748473;81;21803;-41
2022/09/12 05:13:31;;;;;;;0.70;0.60;;;;;;;13.07;73.83;98488.27;1748643;82;20983;-40
2022/09/12 05:15:59;;;;;;;1.42;0.70;;;;;;;13.11;73.79;98485.00;1748492;82;21022;-41
2022/09/12 05:18:26;;;;;;;4.70;0.70;;;;;;;13.16;73.46;98483.23;1748497;82;21073;-41
2022/09/12 05:20:54;;;;;;;1.20;0.75;;;;;;;13.12;73.36;98478.36;1748569;82;21204;-40
2022/09/12 05:23:21;;;;;;;2.10;0.60;;;;;;;13.08;73.36;98488.47;1748341;82;20963;-41
2022/09/12 05:25:50;;;;;;;1.85;0.53;;;;;;;13.06;73.22;98482.08;1748454;82;21030;-40
2022/09/12 05:28:18;;;;;;;1.10;0.55;;;;;;;13.07;72.77;98478.16;1748351;82;21030;-40
2022/09/12 05:30:46;;;;;;;0.90;0.70;;;;;;;13.13;72.35;98478.56;1748693;82;21027;-40
2022/09/12 05:33:14;;;;;;;1.85;0.90;;;;;;;13.16;72.27;98479.14;1748617;82;23115;-40
2022/09/12 05:35:40;;;;;;;2.10;0.70;;;;;;;13.16;72.47;98477.78;1748818;82;21551;-40
2022/09/12 05:38:07;;;;;;;3.40;0.72;;;;;;;13.17;72.12;98477.95;1748824;82;20984;-40
2022/09/12 05:40:34;;;;;;;1.52;0.80;;;;;;;13.14;71.78;98474.67;1748532;82;21042;-40
2022/09/12 05:43:02;;;;;;;1.17;0.65;;;;;;;13.14;71.80;98477.39;1748688;82;21490;-40
2022/09/12 05:45:29;;;;;;;1.77;0.78;;;;;;;13.19;71.83;98472.89;1748519;82;23199;-40
2022/09/12 05:47:56;;;;;;;1.70;0.90;;;;;;;13.27;71.61;98475.75;1748503;82;21536;-40
2022/09/12 05:50:22;;;;;;;2.87;0.80;;;;;;;13.29;71.55;98479.45;1748691;82;21572;-40
2022/09/12 05:52:49;;;;;;;1.17;0.60;;;;;;;13.30;71.10;98473.61;1742778;80;21100;-40
2022/09/12 05:55:16;;;;;;;1.57;0.60;;;;;;;13.32;71.49;98473.97;1734469;82;21044;-40
2022/09/12 05:57:45;;;;;;;1.70;0.70;;;;;;;13.32;71.23;98480.00;1734422;82;23120;-40
2022/09/12 06:00:14;;;;;;;2.33;0.80;;;;;;;13.39;70.96;98473.94;1734539;82;20875;-40
2022/09/12 06:02:42;;;;;;;1.27;0.80;;;;;;;13.43;71.10;98471.96;1734720;82;21020;-41
2022/09/12 06:05:08;;;;;;;1.92;0.72;;;;;;;13.50;71.79;98469.78;1734426;82;21030;-40
2022/09/12 06:07:36;;;;;;;1.40;0.70;;;;;;;13.55;71.63;98469.95;1734373;82;21096;-40
2022/09/12 06:10:04;;;;;;;1.65;1.10;;;;;;;13.56;70.93;98472.83;1734382;82;21169;-40
2022/09/12 06:12:31;;;;;;;1.57;0.78;;;;;;;13.52;71.05;98474.23;1734381;81;21053;-40
2022/09/12 06:14:58;;;;;;;1.12;0.90;;;;;;;13.57;70.97;98475.75;1734505;82;21034;-40
2022/09/12 06:17:25;;;;;;;2.37;1.30;;;;;;;13.58;71.37;98480.03;1734530;82;20915;-40
2022/09/12 06:19:52;;;;;;;2.55;1.45;;;;;;;13.58;70.88;98477.30;1734524;82;21041;-40
2022/09/12 06:22:19;;;;;;;2.98;1.72;;;;;;;13.56;70.85;98478.28;1734398;82;21305;-40
2022/09/12 06:24:46;;;;;;;2.42;1.47;;;;;;;13.57;71.46;98483.34;1734524;82;21005;-40
2022/09/12 06:27:13;;;;;;;2.55;1.70;;;;;;;13.61;70.97;98476.49;1734594;82;20970;-40
2022/09/12 06:29:40;;;;;;;4.25;1.90;;;;;;;13.68;70.84;98476.45;1734458;82;21030;-40
2022/09/12 06:32:06;;;;;;;2.77;1.87;;;;;;;13.73;70.96;98474.66;1734642;82;21049;-40
2022/09/12 06:34:35;;;;;;;2.33;1.77;;;;;;;13.73;70.69;98477.39;1734469;82;21229;-40
2022/09/12 06:37:02;;;;;;;3.15;2.00;;;;;;;13.70;70.87;98480.92;1734509;82;21580;-40
2022/09/12 06:39:31;;;;;;;2.75;1.60;;;;;;;13.69;71.16;98483.45;1734491;82;21006;-40
2022/09/12 06:41:58;;;;;;;2.37;1.80;;;;;;;13.71;70.83;98477.00;1734378;82;21033;-40
2022/09/12 06:44:26;;;;;;;2.15;1.70;;;;;;;13.77;70.02;98477.55;1734484;82;21049;-40
2022/09/12 06:46:53;;;;;;;2.52;1.80;;;;;;;13.81;69.55;98477.51;1734714;82;21493;-40
2022/09/12 06:49:20;;;;;;;1.87;1.60;;;;;;;13.81;69.44;98481.00;1734434;82;20978;-40
2022/09/12 06:51:47;;;;;;;2.22;1.75;;;;;;;13.81;69.61;98472.05;1734637;82;20953;-40
2022/09/12 06:54:15;;;;;;;1.72;1.35;;;;;;;13.82;69.86;98472.25;1734619;82;21064;-40
2022/09/12 06:56:43;;;;;;;1.67;1.57;;;;;;;13.89;69.48;98474.31;1734808;82;21543;-40
2022/09/12 06:59:10;;;;;;;2.42;1.72;;;;;;;13.94;69.27;98471.16;1734992;82;21095;-40
2022/09/12 07:01:38;;;;;;;1.75;1.30;;;;;;;13.97;69.74;98473.67;1734580;82;21066;-40
2022/09/12 07:04:05;;;;;;;1.57;1.40;;;;;;;13.99;69.46;98476.76;1734580;82;20891;-40
2022/09/12 07:06:40;;;;;;;1.87;1.27;;;;;;;13.99;69.37;98477.37;1734596;82;21080;-40
2022/09/12 07:09:12;;;;;;;1.90;1.40;;;;;;;13.99;69.07;98484.19;1734482;82;21009;-40
2022/09/12 07:11:40;;;;;;;1.95;1.17;;;;;;;14.00;69.49;98489.21;1731633;81;21725;-41
2022/09/12 07:14:10;;;;;;;1.70;1.22;;;;;;;14.05;68.56;98491.50;1742524;82;20977;-40
2022/09/12 07:16:37;;;;;;;1.32;1.17;;;;;;;14.08;68.48;98483.90;1742537;82;21045;-40
2022/09/12 07:19:06;;;;;;;1.90;1.52;;;;;;;14.11;68.27;98488.53;1742625;82;20973;-40
2022/09/12 07:21:38;;;;;;;1.50;1.40;;;;;;;14.19;68.62;98485.92;1742611;82;21005;-40
2022/09/12 07:26:20;;;;;;;2.42;1.30;;;;;;;14.35;67.90;98479.92;1804665;78;22605;-40
2022/09/12 07:28:56;;;;;;;2.60;1.20;;;;;;;14.27;68.46;98489.36;1779755;80;21046;-40
2022/09/12 07:31:25;;;;;;;1.65;1.30;;;;;;;14.31;67.21;98485.42;1778729;80;21199;-40
2022/09/12 07:33:52;;;;;;;2.05;1.50;;;;;;;14.31;67.08;98484.64;1779395;80;21544;-40
2022/09/12 07:36:22;;;;;;;1.45;1.00;;;;;;;14.29;67.37;98482.91;1779528;80;20975;-40
2022/09/12 07:38:55;;;;;;;2.70;1.20;;;;;;;14.25;66.89;98482.17;1779611;80;20966;-40
2022/09/12 07:41:25;;;;;;;1.60;1.30;;;;;;;14.18;66.99;98485.75;1779063;80;21604;-40
2022/09/12 07:43:57;;;;;;;1.82;1.35;;;;;;;14.11;67.35;98485.81;1779712;80;21288;-40
2022/09/12 07:46:25;;;;;;;5.90;1.57;;;;;;;14.02;67.68;98490.18;1774564;80;21012;-41
2022/09/12 07:48:53;;;;;;;2.37;1.20;;;;;;;13.95;67.93;98493.73;1779774;80;20923;-40
2022/09/12 07:51:21;;;;;;;2.27;1.17;;;;;;;13.96;67.86;98491.78;1779903;80;20986;-40
2022/09/12 07:53:50;;;;;;;1.62;1.07;;;;;;;13.92;68.15;98493.19;1779521;80;21565;-40
2022/09/12 07:56:19;;;;;;;1.57;1.20;;;;;;;13.87;68.48;98490.30;1779427;80;21129;-40
2022/09/12 07:58:46;;;;;;;1.85;1.30;;;;;;;13.88;68.99;98494.59;1779594;80;21017;-41
2022/09/12 08:01:18;;;;;;;2.02;1.25;;;;;;;13.85;69.31;98495.95;1779873;80;20998;-40
2022/09/12 08:03:51;;;;;;;1.45;1.30;;;;;;;13.83;69.12;98490.92;1779556;80;20939;-40
2022/09/12 08:06:20;;;;;;;1.47;1.12;;;;;;;13.81;68.53;98491.13;1772512;80;21117;-40
2022/09/12 08:08:47;;;;;;;1.12;1.02;;;;;;;13.76;68.70;98488.83;1779737;80;21556;-40
2022/09/12 08:11:17;;;;;;;1.87;0.70;;;;;;;13.68;67.98;98498.24;1779326;80;21527;-41
2022/09/12 08:13:44;;;;;;;0.50;0.50;;;;;;;13.58;67.75;98506.67;1780076;80;20939;-40
2022/09/12 08:16:17;;;;;;;1.52;0.42;;;;;;;13.49;67.67;98504.41;1779506;80;20998;-41
2022/09/12 08:18:44;;;;;;;2.47;0.50;;;;;;;13.42;67.39;98503.66;1779791;80;20970;-40
2022/09/12 08:21:14;;;;;;;1.72;0.78;;;;;;;13.38;67.42;98507.78;1779518;80;21226;-40
2022/09/12 08:23:42;;;;;;;0.98;0.50;;;;;;;13.37;67.40;98499.41;1779708;80;21535;-40
2022/09/12 08:26:09;;;;;;;0.42;0.42;;;;;;;13.34;67.67;98501.58;1784128;80;20947;-40
2022/09/12 08:28:36;;;;;;;1.05;0.53;;;;;;;13.33;67.90;98502.75;1785668;80;20950;-40
2022/09/12 08:31:10;;;;;;;1.70;0.70;;;;;;;13.30;68.31;98499.47;1785536;80;21005;-40
2022/09/12 08:33:37;;;;;;;0.88;0.62;;;;;;;13.29;68.57;98500.64;1785794;80;21103;-40
2022/09/12 08:36:14;;;;;;;1.95;0.60;;;;;;;13.23;68.78;98498.72;1785465;80;20958;-40
2022/09/12 08:38:44;;;;;;;0.45;0.45;;;;;;;13.22;69.04;98500.66;1785107;80;21010;-40
2022/09/12 08:41:29;;;;;;;0.85;0.57;;;;;;;13.29;69.01;98499.86;1785361;80;21084;-40
2022/09/12 08:44:22;;;;;;;1.07;0.62;;;;;;;13.36;69.18;98499.83;1785321;80;21161;-40
2022/09/12 08:47:06;;;;;;;1.27;0.72;;;;;;;13.35;69.10;98497.69;1767966;80;21207;-40
2022/09/12 08:49:55;;;;;;;2.15;0.60;;;;;;;13.34;69.35;98500.22;1755557;80;21543;-40
2022/09/12 08:52:37;;;;;;;0.60;0.60;;;;;;;13.38;69.62;98498.25;1755902;81;21558;-40
2022/09/12 08:55:05;;;;;;;0.60;0.60;;;;;;;13.48;69.36;98497.41;1755589;81;21040;-40
2022/09/12 08:57:32;;;;;;;1.00;0.62;;;;;;;13.57;69.19;98496.17;1755435;81;21064;-40
2022/09/12 08:59:59;;;;;;;0.60;0.53;;;;;;;13.64;69.03;98499.64;1755529;80;21130;-40
2022/09/12 09:03:04;;;;;;;0.80;0.68;;;;;;;13.67;68.75;98500.19;1710913;81;20953;-40
2022/09/12 09:05:57;;;;;;;0.95;0.65;;;;;;;13.72;68.55;98505.80;1755455;80;20953;-40
2022/09/12 09:08:38;;;;;;;1.62;0.88;;;;;;;13.81;68.87;98500.66;1755740;81;20929;-41
2022/09/12 09:11:20;;;;;;;2.80;0.90;;;;;;;14.03;68.63;98499.91;1746028;81;21092;-41
2022/09/12 09:16:53;;;;;;;1.22;0.82;;;;;;;14.47;67.75;98495.81;1755458;81;21008;-40
2022/09/12 09:19:25;;;;;;;1.70;0.90;;;;;;;14.65;67.02;98506.52;1755492;81;20988;-40
2022/09/12 09:22:05;;;;;;;0.68;0.68;;;;;;;14.78;65.43;98493.30;1754583;81;20996;-40
2022/09/12 09:24:43;;;;;;;1.30;0.80;;;;;;;14.93;65.21;98503.45;1755517;80;21049;-40
2022/09/12 09:27:38;;;;;;;1.02;0.80;;;;;;;15.09;65.25;98498.19;1755461;80;21245;-40
2022/09/12 09:30:14;;;;;;;4.70;3.58;;;;;;;15.28;64.47;98503.59;1755418;81;21523;-40
2022/09/12 09:32:41;;;;;;;4.62;4.12;;;;;;;15.35;62.74;98497.23;1755515;81;21514;-40
2022/09/12 09:35:17;;;;;;;4.40;3.42;;;;;;;15.47;63.43;98506.24;1755573;81;20925;-40
2022/09/12 09:38:01;;;;;;;2.52;2.30;;;;;;;15.62;61.81;98506.25;1755485;81;20956;-41
2022/09/12 09:40:46;;;;;;;1.85;1.75;;;;;;;15.70;61.55;98511.00;1755472;81;21135;-40
2022/09/12 09:43:26;;;;;;;2.27;1.80;;;;;;;15.70;61.55;98506.31;1737950;81;21012;-40
2022/09/12 09:45:53;;;;;;;;;;;;;;;15.75;61.57;98507.80;1758044;80;21008;-40
2022/09/12 09:48:27;;;;;;;1.90;1.70;;;;;;;15.78;61.59;98511.84;1755653;81;20164;-40
2022/09/12 09:50:59;;;;;;;1.80;1.65;;;;;;;15.72;61.33;98506.68;1755685;81;20978;-41
2022/09/12 09:53:37;;;;;;;1.50;1.37;;;;;;;15.76;61.10;98512.86;1755534;81;21091;-40
2022/09/12 09:56:14;;;;;;;1.85;1.40;;;;;;;15.76;60.79;98508.76;1752861;81;21466;-41
2022/09/12 09:58:41;;;;;;;1.80;1.47;;;;;;;15.69;60.83;98512.95;1756035;80;21287;-40
2022/09/12 10:01:15;;;;;;;2.22;1.70;;;;;;;15.65;61.29;98513.02;1755570;81;21357;-41
2022/09/12 10:03:49;;;;;;;2.12;1.45;;;;;;;15.61;60.54;98516.99;1755802;81;21028;-41
2022/09/12 10:06:33;;;;;;;2.12;0.90;;;;;;;15.55;59.88;98518.63;1754822;81;21117;-41
2022/09/12 10:09:24;;;;;;;1.40;0.80;;;;;;;15.39;59.61;98515.14;1755527;80;22064;-41
2022/09/12 10:11:52;;;;;;;0.90;0.80;;;;;;;15.23;60.37;98516.33;1755542;80;26489;-40
2022/09/12 10:14:30;;;;;;;0.70;0.70;;;;;;;15.10;60.24;98518.07;1755725;81;20999;-41
2022/09/12 10:16:58;;;;;;;0.70;0.70;;;;;;;14.98;60.58;98522.11;1755443;80;21469;-41
2022/09/12 10:19:36;;;;;;;0.60;0.60;;;;;;;14.94;61.29;98519.23;1736306;81;21979;-41
2022/09/12 10:22:04;;;;;;;0.88;0.70;;;;;;;14.96;61.34;98520.36;1755420;80;20956;-41
2022/09/12 10:24:36;;;;;;;0.93;0.60;;;;;;;14.95;61.30;98516.70;1755396;81;21008;-41
2022/09/12 10:27:19;;;;;;;0.93;0.80;;;;;;;14.91;61.65;98520.81;1738416;81;20977;-40
2022/09/12 10:29:56;;;;;;;0.70;0.70;;;;;;;14.90;62.06;98520.66;1756771;80;21076;-41
2022/09/12 10:32:35;;;;;;;0.70;0.70;;;;;;;14.87;61.99;98514.63;1752392;81;21305;-41
2022/09/12 10:35:08;;;;;;;1.12;0.60;;;;;;;14.83;61.79;98519.95;1757932;81;21060;-40
2022/09/12 10:37:38;;;;;;;0.95;0.70;;;;;;;14.78;62.16;98515.72;1754419;81;21487;-41
2022/09/12 10:40:09;;;;;;;0.60;0.60;;;;;;;14.71;62.55;98517.17;1739704;81;21087;-41
2022/09/12 10:42:54;;;;;;;1.42;1.07;;;;;;;14.69;62.73;98514.07;1756496;81;21518;-41
2022/09/12 10:45:32;;;;;;;0.75;0.70;;;;;;;14.69;62.71;98522.25;1758178;81;21788;-41
2022/09/12 10:48:00;;;;;;;0.80;0.80;;;;;;;14.76;62.65;98522.94;1757930;81;20969;-41
2022/09/12 10:50:37;;;;;;;0.90;0.60;;;;;;;14.87;62.67;98526.13;1758035;81;21011;-41
2022/09/12 10:53:14;;;;;;;1.17;0.80;;;;;;;14.95;62.56;98523.52;1757720;81;20969;-40
2022/09/12 10:56:05;;;;;;;1.05;0.70;;;;;;;14.92;61.90;98523.73;1751232;81;21107;-41
2022/09/12 10:58:44;;;;;;;1.20;0.80;;;;;;;14.87;61.84;98535.09;1757770;81;21238;-41
2022/09/12 11:01:42;;;;;;;0.80;0.80;;;;;;;14.85;61.73;98527.15;1757796;81;21507;-41
2022/09/12 11:04:44;;;;;;;2.80;1.00;;;;;;;14.83;61.48;98528.91;1758082;81;21087;-40
2022/09/12 11:07:44;;;;;;;1.00;0.70;;;;;;;14.81;61.82;98534.02;1757939;81;20969;-40
2022/09/12 11:10:37;;;;;;;2.62;0.70;;;;;;;14.81;62.15;98532.66;1757961;81;20997;-40
2022/09/12 11:13:15;;;;;;;0.90;0.70;;;;;;;14.81;61.97;98534.61;1758003;81;21099;-41
2022/09/12 11:16:04;;;;;;;2.05;0.75;;;;;;;14.81;61.04;98534.02;1717219;81;21064;-41
2022/09/12 11:18:43;;;;;;;1.42;0.72;;;;;;;14.81;60.46;98538.11;1757956;81;20902;-40
2022/09/12 11:21:38;;;;;;;0.90;0.85;;;;;;;14.78;60.93;98532.86;1758025;81;21027;-41
2022/09/12 11:24:46;;;;;;;0.93;0.82;;;;;;;14.86;61.19;98536.30;1758042;81;21016;-40
2022/09/12 11:27:42;;;;;;;3.17;0.93;;;;;;;14.96;60.30;98536.73;1744652;81;21250;-41
2022/09/12 11:30:12;;;;;;;1.05;0.60;;;;;;;14.96;59.73;98540.84;1742099;81;20965;-40
2022/09/12 11:32:50;;;;;;;1.17;0.70;;;;;;;14.94;60.04;98539.13;1742161;81;21026;-40
2022/09/12 11:35:28;;;;;;;1.12;0.70;;;;;;;14.94;60.23;98542.44;1741906;82;20998;-40
2022/09/12 11:38:27;;;;;;;1.70;0.70;;;;;;;14.91;60.46;98537.19;1741934;81;21021;-40
2022/09/12 11:41:16;;;;;;;0.67;0.67;;;;;;;14.88;60.37;98533.14;1742192;81;21138;-40
2022/09/12 11:44:22;;;;;;;1.55;0.75;;;;;;;14.82;60.64;98533.41;1741651;81;21842;-40
2022/09/12 11:46:49;;;;;;;6.35;1.10;;;;;;;14.72;60.95;98535.07;1741709;81;20958;-40
2022/09/12 11:49:31;;;;;;;2.27;1.00;;;;;;;14.65;61.58;98544.71;1741687;81;21001;-41
2022/09/12 11:52:18;;;;;;;3.08;1.07;;;;;;;14.62;61.69;98541.44;1741901;82;21065;-40
2022/09/12 11:55:17;;;;;;;3.02;1.00;;;;;;;14.55;61.59;98549.09;1741781;81;21205;-40
2022/09/12 11:57:54;;;;;;;1.32;0.90;;;;;;;14.51;62.09;98546.22;1741607;81;21496;-40
2022/09/12 12:00:25;;;;;;;1.15;0.80;;;;;;;14.55;62.18;98545.59;1741789;81;21032;-40
2022/09/12 12:03:31;;;;;;;1.15;0.90;;;;;;;14.58;62.22;98542.05;1741837;82;20996;-40
2022/09/12 12:06:08;;;;;;;0.72;0.72;;;;;;;14.60;62.29;98541.06;1763232;79;21056;-40
2022/09/12 12:08:40;;;;;;;1.10;1.00;;;;;;;14.61;62.44;98537.16;1765997;81;21253;-41
2022/09/12 12:11:09;;;;;;;1.17;1.02;;;;;;;14.63;62.47;98541.60;1766187;81;21041;-41
2022/09/12 12:13:50;;;;;;;1.30;0.93;;;;;;;14.67;62.92;98541.75;1766723;81;20973;-40